Racecast

Aamira Jackson

East End Track & Field (VA) · - · Compare head to head

Athlete rating
Races 32
Seasons 1 2026
Speed rating — all races

Track & Field

TF speed rating

2026 TF

East End Track & Field (VA) · Grade -

Date Meet Event Result Place Rating Difficulty PR/SR Flags
2026-06-14 AAU Virginia District Qualifier - North 50m 10.54 4th · 1st on team -0.033
2026-06-14 AAU Virginia District Qualifier - North 100m 20.24 2nd · 1st on team -0.033
2026-06-14 AAU Virginia District Qualifier - North 200m 42.64 28th · 1st on team -0.033 ★PR SR
2026-05-30 Va Beach Flames Invite softball 13' 10" -0.023
2026-05-30 Va Beach Flames Invite 200m 44.89 8th · 1st on team -0.023
2026-05-30 Va Beach Flames Invite 100m 19.98 18th · 1st on team -0.023 ★PR SR
2026-05-24 HR Hurricanes CAT 5 Invite softball 15' 8" -0.035
2026-05-24 HR Hurricanes CAT 5 Invite 200m 43.3 5th · 1st on team -0.035 PR SR
2026-05-24 HR Hurricanes CAT 5 Invite 100m 20.69 20th · 3rd on team -0.035
2026-05-16 2026 Technique Relays softball 13' 5" -0.035
2026-05-16 2026 Technique Relays 50m 10.5 7th · 2nd on team -0.035 ★PR SR
2026-05-16 2026 Technique Relays 100m 20.09 4th · 1st on team -0.035 PR SR
2026-03-06 AAU Indoor National Championship 60m 12.69 31st · 1st on team -0.036 ★PR SR
2026-03-06 AAU Indoor National Championship 200m 46.44 30th · 1st on team -0.036
2026-02-22 3rd Annual HRH Winter Storm Classic 200m 46.19 6th · 1st on team -0.024 PR SR
2026-02-22 3rd Annual HRH Winter Storm Classic 100m 21.77 9th · 1st on team -0.024 PR SR
2026-02-22 3rd Annual HRH Winter Storm Classic 55m 11.77 16th · 1st on team -0.024 ★PR SR
2026-01-31 BWSP Queens and Kings - Meet 3 55m 11.88 7th · 1st on team -0.024 PR SR
2026-01-31 BWSP Queens and Kings - Meet 3 200m 48.49 3rd · 1st on team -0.024 PR SR
2026-01-31 BWSP Queens and Kings - Meet 3 55m 12.04 8th · 2nd on team -0.024
2026-01-31 BWSP Queens and Kings - Meet 3 100m 22.07 5th · 1st on team -0.024 PR SR
2026-01-17 BWSP Queens and Kings - Meet 2 100m 22.26 6th · 1st on team -0.024 PR SR
2026-01-17 BWSP Queens and Kings - Meet 2 55m 12.36 12th · 1st on team -0.024 PR SR
2026-01-17 BWSP Queens and Kings - Meet 2 200m 48.61 6th · 1st on team -0.024 PR SR
2026-01-11 Lighting Track Classic lj FOUL -0.036
2026-01-11 Lighting Track Classic 60m 13.69 5th · 1st on team -0.036 PR SR
2026-01-11 Lighting Track Classic 60m 13.85 6th · 2nd on team -0.036
2026-01-11 Lighting Track Classic 200m 50.84 2nd · 1st on team -0.036 PR SR
2026-01-03 BWSP Queens and Kings - Meet 1 100m 23.49 6th · 1st on team -0.024 PR SR
2026-01-03 BWSP Queens and Kings - Meet 1 55m 12.82 6th · 1st on team -0.024 PR SR
2025-12-06 Coach Miami Presents the Virginia Beast Invitational lj FS -0.036
2025-12-06 Coach Miami Presents the Virginia Beast Invitational 60m 14.8 23rd · 2nd on team -0.036 PR SR